Time;durP1;ratioP1;P1;durP2;ratioP2;P2;SDS_P1;SDS_P2;PMS_P1;PMS_P2;Temp;Humidity;BMP_temperature;BMP_pressure;BME280_temperature;BME280_humidity;BME280_pressure;Samples;Min_cycle;Max_cycle;Signal;HPM_P1;HPM_P2
2023/02/09 00:01:07;;;;;;;;;44.25;41.75;;;;;-147.17;100.00;-15917.19;5034794;28;51102;-64
2023/02/09 00:03:34;;;;;;;;;48.25;42.00;;;;;-147.17;100.00;-15917.19;5027358;28;51054;-64
2023/02/09 00:06:05;;;;;;;;;43.00;39.75;;;;;-147.17;100.00;-15917.19;5022557;28;51053;-66
2023/02/09 00:08:31;;;;;;;;;50.75;44.25;;;;;-147.17;100.00;-15917.19;5030479;28;51141;-63
2023/02/09 00:10:57;;;;;;;;;53.00;45.00;;;;;-147.17;100.00;-15917.19;5033911;28;51216;-65
2023/02/09 00:13:24;;;;;;;;;56.50;48.25;;;;;-147.17;100.00;-15917.19;5026070;28;51212;-62
2023/02/09 00:15:55;;;;;;;;;51.25;44.75;;;;;-147.17;100.00;-15917.19;5031576;28;52941;-63
2023/02/09 00:18:21;;;;;;;;;59.75;49.50;;;;;-147.17;100.00;-15917.19;5020273;28;51438;-64
2023/02/09 00:21:02;;;;;;;;;61.25;51.00;;;;;-147.17;100.00;-15917.19;5031208;28;51235;-63
2023/02/09 00:23:29;;;;;;;;;58.75;48.75;;;;;-147.17;100.00;-15917.19;5006432;28;51228;-64
2023/02/09 00:26:05;;;;;;;;;62.00;51.00;;;;;-147.17;100.00;-15917.19;5019426;28;52863;-62
2023/02/09 00:28:30;;;;;;;;;65.75;52.00;;;;;-147.17;100.00;-15917.19;5027720;28;51188;-63
2023/02/09 00:30:56;;;;;;;;;68.50;55.00;;;;;-147.17;100.00;-15917.19;5025695;28;51144;-64
2023/02/09 00:33:21;;;;;;;;;69.25;58.00;;;;;-147.17;100.00;-15917.19;5017826;28;51096;-63
2023/02/09 00:35:47;;;;;;;;;68.75;55.00;;;;;-147.17;100.00;-15917.19;5020956;28;51794;-63
2023/02/09 00:38:13;;;;;;;;;60.75;51.00;;;;;-147.17;100.00;-15917.19;5030096;28;51217;-64
2023/02/09 00:40:39;;;;;;;;;76.75;60.00;;;;;-147.17;100.00;-15917.19;5026335;28;51221;-64
2023/02/09 00:43:06;;;;;;;;;70.75;58.00;;;;;-147.17;100.00;-15917.19;5016194;28;51232;-64
2023/02/09 00:45:32;;;;;;;;;75.75;60.00;;;;;-147.17;100.00;-15917.19;5004831;28;51280;-64
2023/02/09 00:47:57;;;;;;;;;70.00;58.00;;;;;-147.17;100.00;-15917.19;5026988;28;51181;-64
2023/02/09 00:50:23;;;;;;;;;64.50;53.75;;;;;-147.17;100.00;-15917.19;5008427;28;51033;-63
2023/02/09 00:52:48;;;;;;;;;68.50;56.00;;;;;-147.17;100.00;-15917.19;5030098;28;50932;-62
2023/02/09 00:55:15;;;;;;;;;69.50;57.75;;;;;-147.17;100.00;-15917.19;5018351;28;51795;-64
2023/02/09 00:57:40;;;;;;;;;66.75;55.75;;;;;-147.17;100.00;-15917.19;5026071;28;51230;-65
2023/02/09 01:00:07;;;;;;;;;74.50;59.00;;;;;-147.17;100.00;-15917.19;5024446;28;51343;-63
2023/02/09 01:02:33;;;;;;;;;67.75;54.25;;;;;-147.17;100.00;-15917.19;5031989;28;51228;-63
2023/02/09 01:04:58;;;;;;;;;67.50;56.00;;;;;-147.17;100.00;-15917.19;5018729;28;52602;-64
2023/02/09 01:07:24;;;;;;;;;75.00;58.00;;;;;-147.17;100.00;-15917.19;5014548;28;51177;-65
2023/02/09 01:09:49;;;;;;;;;69.25;58.25;;;;;-147.17;100.00;-15917.19;5021053;28;51029;-63
2023/02/09 01:12:15;;;;;;;;;68.00;56.00;;;;;-147.17;100.00;-15917.19;5023583;28;51362;-63
2023/02/09 01:14:42;;;;;;;;;73.75;60.50;;;;;-147.17;100.00;-15917.19;5000679;28;52490;-64
2023/02/09 01:17:08;;;;;;;;;73.00;59.50;;;;;-147.17;100.00;-15917.19;5022457;28;51951;-63
2023/02/09 01:19:34;;;;;;;;;75.50;59.25;;;;;-147.17;100.00;-15917.19;5016752;28;51169;-64
2023/02/09 01:21:59;;;;;;;;;74.25;59.00;;;;;-147.17;100.00;-15917.19;5021122;28;51418;-63
2023/02/09 01:24:25;;;;;;;;;72.50;55.50;;;;;-147.17;100.00;-15917.19;5027702;28;51516;-65
2023/02/09 01:26:50;;;;;;;;;76.75;61.50;;;;;-147.17;100.00;-15917.19;5020337;28;51112;-64
2023/02/09 01:29:18;;;;;;;;;81.00;64.67;;;;;-147.17;100.00;-15917.19;5030090;28;50962;-65
2023/02/09 01:31:44;;;;;;;;;76.00;60.25;;;;;-147.17;100.00;-15917.19;5023558;28;51237;-63
2023/02/09 01:34:16;;;;;;;;;77.25;61.25;;;;;-147.17;100.00;-15917.19;5022460;28;51332;-64
2023/02/09 01:36:42;;;;;;;;;71.75;59.75;;;;;-147.17;100.00;-15917.19;5017774;28;51069;-64
2023/02/09 01:39:10;;;;;;;;;71.75;55.50;;;;;-147.17;100.00;-15917.19;5024080;28;50950;-63
2023/02/09 01:41:36;;;;;;;;;78.50;60.00;;;;;-147.17;100.00;-15917.19;5016838;28;51291;-63
2023/02/09 01:44:01;;;;;;;;;76.50;61.00;;;;;-147.17;100.00;-15917.19;5017316;28;51144;-64
2023/02/09 01:46:32;;;;;;;;;75.00;60.00;;;;;-147.17;100.00;-15917.19;5026475;28;51139;-63
2023/02/09 01:49:10;;;;;;;;;79.75;61.50;;;;;-147.17;100.00;-15917.19;5026957;28;51149;-64
2023/02/09 01:51:42;;;;;;;;;82.33;64.67;;;;;-147.17;100.00;-15917.19;5009285;28;51242;-64
2023/02/09 01:54:12;;;;;;;;;69.67;57.33;;;;;-147.17;100.00;-15917.19;5019909;28;51174;-62
2023/02/09 01:56:43;;;;;;;;;83.00;66.67;;;;;-147.17;100.00;-15917.19;5026280;28;51071;-64
2023/02/09 01:59:09;;;;;;;;;84.00;68.33;;;;;-147.17;100.00;-15917.19;5020039;28;51928;-64
2023/02/09 02:01:36;;;;;;;;;81.67;65.33;;;;;-147.17;100.00;-15917.19;5018776;28;51205;-64
2023/02/09 02:04:02;;;;;;;;;85.00;68.00;;;;;-147.17;100.00;-15917.19;5019599;28;52215;-65
2023/02/09 02:06:28;;;;;;;;;86.67;67.67;;;;;-147.17;100.00;-15917.19;5012983;28;51066;-64
2023/02/09 02:09:11;;;;;;;;;75.33;62.67;;;;;-147.17;100.00;-15917.19;5022548;28;51109;-64
2023/02/09 02:11:37;;;;;;;;;82.00;65.33;;;;;-147.17;100.00;-15917.19;5015070;28;51144;-63
2023/02/09 02:14:03;;;;;;;;;87.00;69.00;;;;;-147.17;100.00;-15917.19;5021978;28;51976;-63
2023/02/09 02:16:43;;;;;;;;;84.00;68.33;;;;;-147.17;100.00;-15917.19;5009535;28;51253;-62
2023/02/09 02:19:30;;;;;;;;;85.67;69.00;;;;;-147.17;100.00;-15917.19;5024711;28;51186;-64
2023/02/09 02:22:18;;;;;;;;;85.67;68.67;;;;;-147.17;100.00;-15917.19;5018962;28;51467;-63
2023/02/09 02:25:18;;;;;;;;;89.33;71.33;;;;;-147.17;100.00;-15917.19;5018229;28;51975;-64
2023/02/09 02:28:05;;;;;;;;;84.00;66.00;;;;;-147.17;100.00;-15917.19;5019723;28;51015;-64
2023/02/09 02:30:51;;;;;;;;;89.67;70.00;;;;;-147.17;100.00;-15917.19;5014109;28;51791;-63
2023/02/09 02:33:27;;;;;;;;;90.33;69.33;;;;;-147.17;100.00;-15917.19;5025065;28;51042;-63
2023/02/09 02:36:04;;;;;;;;;89.00;68.67;;;;;-147.17;100.00;-15917.19;5016844;28;51929;-64
2023/02/09 02:38:39;;;;;;;;;85.33;69.00;;;;;-147.17;100.00;-15917.19;5015472;28;51157;-63
2023/02/09 02:44:39;;;;;;;;;84.67;67.67;;;;;-147.17;100.00;-15917.19;5005999;28;51236;-63
2023/02/09 02:47:08;;;;;;;;;90.67;70.67;;;;;-147.17;100.00;-15917.19;5022016;28;52297;-65
2023/02/09 02:50:07;;;;;;;;;90.67;72.33;;;;;-147.17;100.00;-15917.19;5017518;28;51230;-63
2023/02/09 02:52:33;;;;;;;;;84.67;68.33;;;;;-147.17;100.00;-15917.19;5006457;28;51298;-65
2023/02/09 02:55:11;;;;;;;;;89.67;72.00;;;;;-147.17;100.00;-15917.19;5022623;28;51544;-63
2023/02/09 02:57:41;;;;;;;;;89.67;68.33;;;;;-147.17;100.00;-15917.19;5025315;28;52295;-64
2023/02/09 03:00:18;;;;;;;;;87.33;70.00;;;;;-147.17;100.00;-15917.19;5021154;28;51121;-64
2023/02/09 03:02:49;;;;;;;;;82.00;66.33;;;;;-147.17;100.00;-15917.19;5001470;28;51320;-63
2023/02/09 03:05:16;;;;;;;;;83.67;66.67;;;;;-147.17;100.00;-15917.19;5017727;28;51222;-63
2023/02/09 03:07:41;;;;;;;;;89.00;67.33;;;;;-147.17;100.00;-15917.19;5013322;28;51869;-63
2023/02/09 03:10:44;;;;;;;;;89.67;71.33;;;;;-147.17;100.00;-15917.19;5014882;28;51201;-63
2023/02/09 03:13:20;;;;;;;;;92.00;70.33;;;;;-147.17;100.00;-15917.19;4996693;28;51275;-63
2023/02/09 03:16:04;;;;;;;;;92.33;71.33;;;;;-147.17;100.00;-15917.19;4997776;28;51199;-62
2023/02/09 03:18:51;;;;;;;;;92.33;73.67;;;;;-147.17;100.00;-15917.19;5024633;28;51229;-63
2023/02/09 03:21:46;;;;;;;;;91.33;73.67;;;;;-147.17;100.00;-15917.19;5012077;28;51137;-61
2023/02/09 03:24:23;;;;;;;;;88.33;69.33;;;;;-147.17;100.00;-15917.19;4991885;28;51013;-62
2023/02/09 03:26:55;;;;;;;;;91.33;73.33;;;;;-147.17;100.00;-15917.19;5026052;28;51976;-63
2023/02/09 03:29:24;;;;;;;;;96.67;77.67;;;;;-147.17;100.00;-15917.19;5026025;28;52080;-63
2023/02/09 03:31:50;;;;;;;;;96.33;74.67;;;;;-147.17;100.00;-15917.19;5028757;28;51237;-62
2023/02/09 03:34:16;;;;;;;;;89.00;72.33;;;;;-147.17;100.00;-15917.19;5027830;28;51165;-62
2023/02/09 03:36:44;;;;;;;;;90.67;71.67;;;;;-147.17;100.00;-15917.19;5021365;28;51527;-64
2023/02/09 03:39:09;;;;;;;;;91.67;71.33;;;;;-147.17;100.00;-15917.19;5025012;28;51163;-62
2023/02/09 03:41:35;;;;;;;;;94.33;73.33;;;;;-147.17;100.00;-15917.19;5026277;28;51103;-62
2023/02/09 03:46:44;;;;;;;;;91.67;72.67;;;;;-147.17;100.00;-15917.19;5025793;28;51155;-63
2023/02/09 03:49:13;;;;;;;;;93.00;73.33;;;;;-147.17;100.00;-15917.19;5026314;28;52018;-63
2023/02/09 03:51:39;;;;;;;;;97.00;74.33;;;;;-147.17;100.00;-15917.19;5027246;28;51169;-63
2023/02/09 03:54:05;;;;;;;;;93.00;73.00;;;;;-147.17;100.00;-15917.19;5032302;28;51098;-63
2023/02/09 03:56:30;;;;;;;;;97.67;76.33;;;;;-147.17;100.00;-15917.19;5023391;28;51180;-62
2023/02/09 03:58:55;;;;;;;;;92.67;75.00;;;;;-147.17;100.00;-15917.19;5031397;28;52066;-63
2023/02/09 04:01:21;;;;;;;;;89.67;70.00;;;;;-147.17;100.00;-15917.19;5022449;28;51097;-63
2023/02/09 04:03:46;;;;;;;;;88.00;70.33;;;;;-147.17;100.00;-15917.19;5016715;28;51228;-63
2023/02/09 04:06:12;;;;;;;;;91.00;69.33;;;;;-147.17;100.00;-15917.19;5029400;28;51177;-62
2023/02/09 04:08:37;;;;;;;;;90.67;69.33;;;;;-147.17;100.00;-15917.19;5025065;28;51132;-62
2023/02/09 04:11:03;;;;;;;;;87.00;69.67;;;;;-147.17;100.00;-15917.19;5027827;28;51121;-62
2023/02/09 04:13:28;;;;;;;;;85.33;67.00;;;;;-147.17;100.00;-15917.19;5035180;28;51176;-63
2023/02/09 04:15:54;;;;;;;;;92.00;69.33;;;;;-147.17;100.00;-15917.19;5035497;28;51190;-62
2023/02/09 04:18:20;;;;;;;;;86.67;69.00;;;;;-147.17;100.00;-15917.19;5026901;28;51145;-63
2023/02/09 04:20:45;;;;;;;;;84.33;68.33;;;;;-147.17;100.00;-15917.19;5024669;28;51070;-63
2023/02/09 04:23:11;;;;;;;;;80.67;65.00;;;;;-147.17;100.00;-15917.19;5018228;28;51240;-63
2023/02/09 04:25:36;;;;;;;;;84.00;65.33;;;;;-147.17;100.00;-15917.19;5025908;28;51021;-62
2023/02/09 04:28:01;;;;;;;;;88.33;70.33;;;;;-147.17;100.00;-15917.19;5001900;28;52023;-63
2023/02/09 04:30:27;;;;;;;;;85.00;65.00;;;;;-147.17;100.00;-15917.19;5028664;28;52205;-63
2023/02/09 04:32:52;;;;;;;;;86.67;68.00;;;;;-147.17;100.00;-15917.19;5016788;28;51065;-63
2023/02/09 04:35:18;;;;;;;;;80.67;64.67;;;;;-147.17;100.00;-15917.19;5015495;28;51425;-62
2023/02/09 04:37:43;;;;;;;;;79.00;63.67;;;;;-147.17;100.00;-15917.19;5018861;28;51177;-63
2023/02/09 04:40:09;;;;;;;;;84.00;68.67;;;;;-147.17;100.00;-15917.19;5025831;28;50927;-63
2023/02/09 04:42:34;;;;;;;;;85.67;68.67;;;;;-147.17;100.00;-15917.19;5004730;28;51142;-62
2023/02/09 04:45:00;;;;;;;;;89.67;71.00;;;;;-147.17;100.00;-15917.19;5028722;28;51520;-63
2023/02/09 04:47:25;;;;;;;;;82.67;65.00;;;;;-147.17;100.00;-15917.19;5020106;28;51143;-63
2023/02/09 04:49:50;;;;;;;;;84.00;66.00;;;;;-147.17;100.00;-15917.19;5017025;28;50919;-63
2023/02/09 04:52:16;;;;;;;;;89.33;70.67;;;;;-147.17;100.00;-15917.19;5018605;28;51167;-63
2023/02/09 04:54:41;;;;;;;;;86.33;67.67;;;;;-147.17;100.00;-15917.19;5021975;28;51310;-63
2023/02/09 04:59:50;;;;;;;;;86.67;68.67;;;;;-147.17;100.00;-15917.19;5019358;28;51172;-62
2023/02/09 05:02:16;;;;;;;;;83.00;65.25;;;;;-147.17;100.00;-15917.19;5029198;28;51211;-63
2023/02/09 05:04:41;;;;;;;;;79.33;64.33;;;;;-147.17;100.00;-15917.19;5021809;28;51252;-63
2023/02/09 05:07:07;;;;;;;;;79.00;62.50;;;;;-147.17;100.00;-15917.19;5019030;28;52032;-64
2023/02/09 05:09:32;;;;;;;;;74.00;60.75;;;;;-147.17;100.00;-15917.19;5024013;28;50989;-63
2023/02/09 05:11:57;;;;;;;;;72.00;60.00;;;;;-147.17;100.00;-15917.19;5021284;28;51268;-62
2023/02/09 05:14:23;;;;;;;;;69.75;58.25;;;;;-147.17;100.00;-15917.19;5020791;28;51319;-63
2023/02/09 05:16:49;;;;;;;;;82.67;65.33;;;;;-147.17;100.00;-15917.19;5018367;28;51092;-64
2023/02/09 05:19:14;;;;;;;;;82.33;66.00;;;;;-147.17;100.00;-15917.19;5018239;28;51034;-64
2023/02/09 05:21:39;;;;;;;;;84.67;68.00;;;;;-147.17;100.00;-15917.19;5025819;28;51016;-64
2023/02/09 05:24:05;;;;;;;;;75.25;61.50;;;;;-147.17;100.00;-15917.19;5024046;28;51229;-63
2023/02/09 05:26:31;;;;;;;;;79.67;64.33;;;;;-147.17;100.00;-15917.19;5011300;28;51813;-63
2023/02/09 05:28:56;;;;;;;;;74.33;59.67;;;;;-147.17;100.00;-15917.19;5015037;28;51107;-63
2023/02/09 05:31:21;;;;;;;;;85.00;67.00;;;;;-147.17;100.00;-15917.19;5012536;28;51883;-63
2023/02/09 05:33:47;;;;;;;;;83.00;65.50;;;;;-147.17;100.00;-15917.19;5019462;28;51324;-63
2023/02/09 05:36:12;;;;;;;;;81.67;65.00;;;;;-147.17;100.00;-15917.19;5025668;28;51882;-64
2023/02/09 05:38:38;;;;;;;;;83.33;66.33;;;;;-147.17;100.00;-15917.19;5028775;28;50990;-63
2023/02/09 05:41:05;;;;;;;;;79.00;63.67;;;;;-147.17;100.00;-15917.19;5018991;28;51227;-63
2023/02/09 05:43:31;;;;;;;;;81.33;64.33;;;;;-147.17;100.00;-15917.19;5031011;28;51025;-64
2023/02/09 05:45:56;;;;;;;;;80.00;65.33;;;;;-147.17;100.00;-15917.19;5028447;28;51143;-63
2023/02/09 05:48:22;;;;;;;;;83.67;66.33;;;;;-147.17;100.00;-15917.19;4999736;28;51214;-62
2023/02/09 05:50:47;;;;;;;;;81.33;65.00;;;;;-147.17;100.00;-15917.19;5017965;28;51784;-66
2023/02/09 05:53:12;;;;;;;;;79.67;64.67;;;;;-147.17;100.00;-15917.19;5016910;28;51066;-63
2023/02/09 05:55:38;;;;;;;;;87.00;68.67;;;;;-147.17;100.00;-15917.19;5006686;28;52022;-63
2023/02/09 05:58:03;;;;;;;;;84.33;65.33;;;;;-147.17;100.00;-15917.19;5012518;28;51134;-62
2023/02/09 06:00:29;;;;;;;;;79.00;65.33;;;;;-147.17;100.00;-15917.19;5016144;28;51173;-62
2023/02/09 06:02:55;;;;;;;;;86.00;69.00;;;;;-147.17;100.00;-15917.19;5008834;28;51298;-62
2023/02/09 06:05:20;;;;;;;;;88.33;65.00;;;;;-147.17;100.00;-15917.19;5026658;28;51933;-63
2023/02/09 06:07:46;;;;;;;;;86.67;70.67;;;;;-147.17;100.00;-15917.19;5030627;28;51126;-62
2023/02/09 06:10:12;;;;;;;;;87.67;69.67;;;;;-147.17;100.00;-15917.19;5013292;28;51081;-62
2023/02/09 06:12:37;;;;;;;;;83.67;68.00;;;;;-147.17;100.00;-15917.19;5016596;28;51291;-62
2023/02/09 06:15:03;;;;;;;;;90.67;71.33;;;;;-147.17;100.00;-15917.19;5016084;28;51843;-63
2023/02/09 06:17:29;;;;;;;;;81.00;66.33;;;;;-147.17;100.00;-15917.19;5022458;28;51069;-63
2023/02/09 06:19:54;;;;;;;;;88.00;70.33;;;;;-147.17;100.00;-15917.19;5014294;28;51174;-62
2023/02/09 06:22:20;;;;;;;;;89.67;70.67;;;;;-147.17;100.00;-15917.19;5016525;28;51172;-62
2023/02/09 06:24:45;;;;;;;;;86.33;68.67;;;;;-147.17;100.00;-15917.19;5021448;28;51280;-64
2023/02/09 06:27:12;;;;;;;;;94.00;73.67;;;;;-147.17;100.00;-15917.19;5028408;28;51056;-63
2023/02/09 06:29:37;;;;;;;;;89.67;69.33;;;;;-147.17;100.00;-15917.19;5024121;28;51218;-63
2023/02/09 06:32:03;;;;;;;;;85.67;67.33;;;;;-147.17;100.00;-15917.19;5014814;28;51275;-62
2023/02/09 06:34:28;;;;;;;;;89.67;70.33;;;;;-147.17;100.00;-15917.19;5013379;28;53593;-63
2023/02/09 06:36:54;;;;;;;;;92.67;72.00;;;;;-147.17;100.00;-15917.19;5016352;28;51266;-62
2023/02/09 06:39:19;;;;;;;;;89.00;68.33;;;;;-147.17;100.00;-15917.19;5023716;28;51132;-61
2023/02/09 06:41:45;;;;;;;;;83.00;66.00;;;;;-147.17;100.00;-15917.19;5026586;28;51516;-62
2023/02/09 06:44:10;;;;;;;;;82.33;66.00;;;;;-147.17;100.00;-15917.19;5016442;28;51365;-62
2023/02/09 06:46:36;;;;;;;;;79.33;62.67;;;;;-147.17;100.00;-15917.19;5024897;28;51628;-63
2023/02/09 06:49:01;;;;;;;;;32.00;24.67;;;;;-147.17;100.00;-15917.19;5021410;28;51219;-62
2023/02/09 06:51:27;;;;;;;;;81.67;64.00;;;;;-147.17;100.00;-15917.19;5020194;28;51447;-63
2023/02/09 06:53:52;;;;;;;;;82.00;64.00;;;;;-147.17;100.00;-15917.19;5022143;28;52661;-58
2023/02/09 06:56:19;;;;;;;;;77.25;62.25;;;;;-147.17;100.00;-15917.19;5013792;28;51086;-57
2023/02/09 06:58:44;;;;;;;;;87.00;67.75;;;;;-147.17;100.00;-15917.19;5018055;28;51700;-59
2023/02/09 07:01:14;;;;;;;;;78.33;63.33;;;;;-147.17;100.00;-15917.19;5000877;28;51325;-60
2023/02/09 07:03:39;;;;;;;;;78.00;60.75;;;;;-147.17;100.00;-15917.19;5013040;28;51525;-58
2023/02/09 07:06:07;;;;;;;;;75.50;61.25;;;;;-147.17;100.00;-15917.19;5005897;28;51185;-59
2023/02/09 07:08:34;;;;;;;;;75.25;60.75;;;;;-147.17;100.00;-15917.19;5019837;28;51220;-60
2023/02/09 07:11:01;;;;;;;;;72.25;61.00;;;;;-147.17;100.00;-15917.19;5023939;28;51093;-59
2023/02/09 07:13:26;;;;;;;;;73.25;60.50;;;;;-147.17;100.00;-15917.19;5022060;28;51873;-60
2023/02/09 07:15:56;;;;;;;;;70.50;56.75;;;;;-147.17;100.00;-15917.19;5021103;28;51059;-60
2023/02/09 07:18:22;;;;;;;;;69.50;57.50;;;;;-147.17;100.00;-15917.19;5017119;28;51185;-59
2023/02/09 07:20:59;;;;;;;;;72.50;58.50;;;;;-147.17;100.00;-15917.19;5019530;28;50979;-59
2023/02/09 07:23:24;;;;;;;;;68.00;56.50;;;;;-147.17;100.00;-15917.19;5016193;28;51945;-61
2023/02/09 07:25:50;;;;;;;;;72.75;58.50;;;;;-147.17;100.00;-15917.19;5016598;28;51148;-60
2023/02/09 07:28:16;;;;;;;;;72.50;59.25;;;;;-147.17;100.00;-15917.19;5008890;28;51285;-60
2023/02/09 07:30:41;;;;;;;;;73.75;59.25;;;;;-147.17;100.00;-15917.19;5001432;28;51145;-59
2023/02/09 07:33:07;;;;;;;;;69.75;56.25;;;;;-147.17;100.00;-15917.19;5014903;28;51118;-60
2023/02/09 07:35:33;;;;;;;;;71.75;60.25;;;;;-147.17;100.00;-15917.19;5022452;28;51015;-59
2023/02/09 07:37:58;;;;;;;;;70.50;58.00;;;;;-147.17;100.00;-15917.19;5016549;28;51030;-59
2023/02/09 07:40:23;;;;;;;;;72.00;56.50;;;;;-147.17;100.00;-15917.19;5012678;28;50920;-59
2023/02/09 07:42:52;;;;;;;;;67.75;54.25;;;;;-147.17;100.00;-15917.19;5015377;28;51995;-59
2023/02/09 07:45:17;;;;;;;;;64.50;53.25;;;;;-147.17;100.00;-15917.19;5015432;28;50921;-60
2023/02/09 07:47:43;;;;;;;;;66.75;55.50;;;;;-147.17;100.00;-15917.19;4997967;28;51441;-59
2023/02/09 07:50:09;;;;;;;;;65.75;54.00;;;;;-147.17;100.00;-15917.19;5017128;28;51125;-60
2023/02/09 07:52:34;;;;;;;;;70.50;59.25;;;;;-147.17;100.00;-15917.19;5026020;28;52611;-59
2023/02/09 07:54:59;;;;;;;;;69.50;55.50;;;;;-147.17;100.00;-15917.19;5027489;28;51074;-59
2023/02/09 07:57:26;;;;;;;;;70.25;57.00;;;;;-147.17;100.00;-15917.19;5025873;28;51050;-60
2023/02/09 07:59:52;;;;;;;;;75.25;59.75;;;;;-147.17;100.00;-15917.19;5024538;28;51296;-62
2023/02/09 08:02:29;;;;;;;;;73.00;58.25;;;;;-147.17;100.00;-15917.19;5011591;28;51752;-59
2023/02/09 08:04:58;;;;;;;;;72.50;60.00;;;;;-147.17;100.00;-15917.19;5012384;28;51207;-58
2023/02/09 08:07:25;;;;;;;;;70.50;59.25;;;;;-147.17;100.00;-15917.19;5013894;28;51010;-60
2023/02/09 08:09:50;;;;;;;;;78.75;61.75;;;;;-147.17;100.00;-15917.19;5019119;28;51192;-59
2023/02/09 08:12:15;;;;;;;;;78.00;62.75;;;;;-147.17;100.00;-15917.19;5025192;28;51956;-60
2023/02/09 08:14:47;;;;;;;;;79.50;61.50;;;;;-147.17;100.00;-15917.19;5016771;28;50975;-59
2023/02/09 08:17:26;;;;;;;;;70.50;58.25;;;;;-147.17;100.00;-15917.19;5022435;28;51153;-60
2023/02/09 08:20:01;;;;;;;;;73.75;60.50;;;;;-147.17;100.00;-15917.19;5022869;28;51386;-60
2023/02/09 08:22:31;;;;;;;;;75.50;60.00;;;;;-147.17;100.00;-15917.19;5021891;28;51144;-60
2023/02/09 08:24:58;;;;;;;;;71.00;58.00;;;;;-147.17;100.00;-15917.19;5021369;28;51241;-61
2023/02/09 08:27:24;;;;;;;;;75.50;59.00;;;;;-147.17;100.00;-15917.19;5018077;28;51359;-60
2023/02/09 08:29:50;;;;;;;;;78.50;62.50;;;;;-147.17;100.00;-15917.19;5023822;28;51103;-59
2023/02/09 08:32:15;;;;;;;;;75.75;61.00;;;;;-147.17;100.00;-15917.19;5013594;28;53439;-60
2023/02/09 08:34:41;;;;;;;;;72.00;57.25;;;;;-147.17;100.00;-15917.19;5013265;28;50920;-60
2023/02/09 08:37:06;;;;;;;;;72.75;59.75;;;;;-147.17;100.00;-15917.19;5014318;28;51188;-59
2023/02/09 08:39:31;;;;;;;;;75.00;60.00;;;;;-147.17;100.00;-15917.19;5015043;28;51201;-59
2023/02/09 08:41:57;;;;;;;;;75.50;63.00;;;;;-147.17;100.00;-15917.19;4996692;28;52099;-60
2023/02/09 08:44:22;;;;;;;;;75.75;59.50;;;;;-147.17;100.00;-15917.19;5014534;28;51038;-60
2023/02/09 08:46:47;;;;;;;;;75.75;59.50;;;;;-147.17;100.00;-15917.19;5014668;28;51117;-61
2023/02/09 08:49:13;;;;;;;;;66.50;53.25;;;;;-147.17;100.00;-15917.19;5014844;28;51108;-60
2023/02/09 08:51:38;;;;;;;;;72.00;56.75;;;;;-147.17;100.00;-15917.19;5014303;28;51087;-61
2023/02/09 08:54:03;;;;;;;;;75.50;61.75;;;;;-147.17;100.00;-15917.19;5014602;28;51010;-59
2023/02/09 08:56:29;;;;;;;;;74.75;60.50;;;;;-147.17;100.00;-15917.19;5014588;28;50983;-60
2023/02/09 08:58:54;;;;;;;;;69.50;55.50;;;;;-147.17;100.00;-15917.19;5016970;28;51317;-60
2023/02/09 09:01:19;;;;;;;;;70.75;56.75;;;;;-147.17;100.00;-15917.19;5014256;28;51059;-60
2023/02/09 09:03:45;;;;;;;;;69.75;58.25;;;;;-147.17;100.00;-15917.19;5014373;28;51065;-61
2023/02/09 09:06:11;;;;;;;;;71.25;57.00;;;;;-147.17;100.00;-15917.19;5014951;28;51094;-60
2023/02/09 09:08:38;;;;;;;;;62.00;52.00;;;;;-147.17;100.00;-15917.19;5010447;28;51193;-59
2023/02/09 09:11:06;;;;;;;;;69.25;54.00;;;;;-147.17;100.00;-15917.19;5034207;28;50977;-64
2023/02/09 09:13:32;;;;;;;;;62.50;49.75;;;;;-147.17;100.00;-15917.19;5017289;28;51205;-60
2023/02/09 09:15:58;;;;;;;;;62.25;52.00;;;;;-147.17;100.00;-15917.19;5034156;28;51038;-60
2023/02/09 09:18:25;;;;;;;;;68.75;54.50;;;;;-147.17;100.00;-15917.19;5004177;28;51029;-60
2023/02/09 09:20:51;;;;;;;;;66.50;54.00;;;;;-147.17;100.00;-15917.19;5014067;28;51074;-60
2023/02/09 09:23:17;;;;;;;;;67.50;55.00;;;;;-147.17;100.00;-15917.19;5014390;28;51113;-60
2023/02/09 09:25:42;;;;;;;;;64.50;50.50;;;;;-147.17;100.00;-15917.19;5014320;28;51138;-60
2023/02/09 09:28:09;;;;;;;;;66.00;54.25;;;;;-147.17;100.00;-15917.19;5014059;28;50807;-60
2023/02/09 09:30:35;;;;;;;;;64.25;51.25;;;;;-147.17;100.00;-15917.19;5013730;28;50931;-59
2023/02/09 09:33:00;;;;;;;;;63.25;51.75;;;;;-147.17;100.00;-15917.19;5014105;28;51177;-60
2023/02/09 09:35:26;;;;;;;;;66.00;53.00;;;;;-147.17;100.00;-15917.19;5013903;28;51074;-60
2023/02/09 09:37:54;;;;;;;;;63.00;51.00;;;;;-147.17;100.00;-15917.19;5014303;28;51232;-61
2023/02/09 09:40:23;;;;;;;;;64.00;51.50;;;;;-147.17;100.00;-15917.19;5013901;28;52406;-60
2023/02/09 09:42:56;;;;;;;;;64.00;52.25;;;;;-147.17;100.00;-15917.19;5013825;28;51036;-59
2023/02/09 09:45:24;;;;;;;;;68.25;54.50;;;;;-147.17;100.00;-15917.19;5012224;28;50958;-60
2023/02/09 09:47:50;;;;;;;;;61.25;50.75;;;;;-147.17;100.00;-15917.19;5027666;28;50872;-60
2023/02/09 09:50:24;;;;;;;;;65.50;53.50;;;;;-147.17;100.00;-15917.19;5033827;28;51189;-60
2023/02/09 09:52:57;;;;;;;;;67.00;53.25;;;;;-147.17;100.00;-15917.19;5033717;28;50922;-59
2023/02/09 09:55:27;;;;;;;;;64.25;51.75;;;;;-147.17;100.00;-15915.72;5035227;28;50998;-60
2023/02/09 09:57:54;;;;;;;;;66.75;54.00;;;;;-147.17;100.00;-15915.72;5034212;28;51070;-60
2023/02/09 10:00:34;;;;;;;;;67.00;54.00;;;;;-147.17;100.00;-15917.19;5010804;28;52894;-59
2023/02/09 10:02:59;;;;;;;;;69.25;55.00;;;;;-147.17;100.00;-15917.19;5013500;28;51184;-60
2023/02/09 10:05:27;;;;;;;;;60.50;50.75;;;;;-147.17;100.00;-15915.72;5003724;28;51130;-60
2023/02/09 10:08:09;;;;;;;;;68.50;54.75;;;;;-147.17;100.00;-15915.72;5013891;28;51201;-60
2023/02/09 10:10:43;;;;;;;;;64.00;52.00;;;;;-147.17;100.00;-15668.00;5017638;28;51096;-61
2023/02/09 10:13:23;;;;;;;;;66.75;53.50;;;;;-147.17;100.00;-15915.72;5019509;28;51085;-60
2023/02/09 10:15:55;;;;;;;;;67.75;55.00;;;;;-147.17;100.00;-15917.19;5022545;28;51110;-61
2023/02/09 10:18:32;;;;;;;;;68.75;54.00;;;;;-147.17;100.00;-15917.19;5013606;28;51129;-61
2023/02/09 10:21:05;;;;;;;;;65.50;53.00;;;;;-147.17;100.00;-15917.19;5013251;28;52220;-63
2023/02/09 10:23:59;;;;;;;;;72.75;58.50;;;;;-147.17;100.00;-15917.19;5020986;28;50987;-60
2023/02/09 10:26:30;;;;;;;;;68.00;54.00;;;;;-147.17;100.00;-15917.19;5029377;28;50887;-60
2023/02/09 10:28:58;;;;;;;;;69.25;55.00;;;;;-147.17;100.00;-15917.19;5012804;28;51059;-61
2023/02/09 10:31:31;;;;;;;;;64.00;51.75;;;;;-147.17;100.00;-15917.19;5011904;28;52762;-60
2023/02/09 10:34:41;;;;;;;;;69.75;56.75;;;;;-147.17;100.00;-15917.19;5012707;28;51097;-61
2023/02/09 10:37:33;;;;;;;;;61.75;49.75;;;;;-147.17;100.00;-15917.19;5012231;28;50926;-60
2023/02/09 10:40:16;;;;;;;;;71.00;56.25;;;;;-147.17;100.00;-15917.19;5006850;28;51063;-60
2023/02/09 10:42:54;;;;;;;;;63.00;52.00;;;;;-147.17;100.00;-15917.19;5012152;28;51286;-59
2023/02/09 10:45:26;;;;;;;;;61.75;51.25;;;;;-147.17;100.00;-15917.19;5012957;28;51048;-60
2023/02/09 10:48:16;;;;;;;;;67.50;55.50;;;;;-147.17;100.00;-15917.19;5013309;28;51019;-59
2023/02/09 10:50:58;;;;;;;;;67.00;53.50;;;;;-147.17;100.00;-15917.19;5012737;28;51162;-60
2023/02/09 10:53:27;;;;;;;;;64.50;53.00;;;;;-147.17;100.00;-15917.19;5012268;28;51690;-59
2023/02/09 10:56:16;;;;;;;;;67.50;53.75;;;;;-147.17;100.00;-15917.19;5019628;28;51172;-60
2023/02/09 10:58:50;;;;;;;;;63.50;53.00;;;;;-147.17;100.00;-15917.19;5031710;28;51065;-60
2023/02/09 11:01:23;;;;;;;;;67.50;55.00;;;;;-147.17;100.00;-15917.19;5021641;28;51292;-61
2023/02/09 11:04:00;;;;;;;;;68.50;55.00;;;;;-147.17;100.00;-15917.19;5012073;28;51738;-60